sensor_id;sensor_type;location;lat;lon;timestamp;temperature;humidity
5834;DHT22;2943;48.012;10.968;2024-01-27T00:01:07;4.30;99.90
5834;DHT22;2943;48.012;10.968;2024-01-27T00:03:34;4.20;99.90
5834;DHT22;2943;48.012;10.968;2024-01-27T00:06:00;4.20;99.90
5834;DHT22;2943;48.012;10.968;2024-01-27T00:08:29;4.20;99.90
5834;DHT22;2943;48.012;10.968;2024-01-27T00:10:56;4.20;99.90
5834;DHT22;2943;48.012;10.968;2024-01-27T00:13:22;4.20;99.90
5834;DHT22;2943;48.012;10.968;2024-01-27T00:15:49;4.30;99.90
5834;DHT22;2943;48.012;10.968;2024-01-27T00:18:17;4.30;99.90
5834;DHT22;2943;48.012;10.968;2024-01-27T00:20:43;4.30;99.90
5834;DHT22;2943;48.012;10.968;2024-01-27T00:23:10;4.30;99.90
5834;DHT22;2943;48.012;10.968;2024-01-27T00:25:39;4.30;99.90
5834;DHT22;2943;48.012;10.968;2024-01-27T00:28:06;4.20;99.90
5834;DHT22;2943;48.012;10.968;2024-01-27T00:30:33;4.20;99.90
5834;DHT22;2943;48.012;10.968;2024-01-27T00:33:00;4.30;99.90
5834;DHT22;2943;48.012;10.968;2024-01-27T00:35:28;4.30;99.90
5834;DHT22;2943;48.012;10.968;2024-01-27T00:37:55;4.30;99.90
5834;DHT22;2943;48.012;10.968;2024-01-27T00:40:22;4.30;99.90
5834;DHT22;2943;48.012;10.968;2024-01-27T00:42:51;4.30;99.90
5834;DHT22;2943;48.012;10.968;2024-01-27T00:45:18;4.30;99.90
5834;DHT22;2943;48.012;10.968;2024-01-27T00:47:45;4.30;99.90
5834;DHT22;2943;48.012;10.968;2024-01-27T00:50:12;4.30;99.90
5834;DHT22;2943;48.012;10.968;2024-01-27T00:52:39;4.30;99.90
5834;DHT22;2943;48.012;10.968;2024-01-27T00:55:06;4.30;99.90
5834;DHT22;2943;48.012;10.968;2024-01-27T00:57:35;4.30;99.90
5834;DHT22;2943;48.012;10.968;2024-01-27T01:00:05;4.20;99.90
5834;DHT22;2943;48.012;10.968;2024-01-27T01:02:33;4.30;99.90
5834;DHT22;2943;48.012;10.968;2024-01-27T01:05:00;4.30;99.90
5834;DHT22;2943;48.012;10.968;2024-01-27T01:07:27;4.20;99.90
5834;DHT22;2943;48.012;10.968;2024-01-27T01:09:54;4.30;99.90
5834;DHT22;2943;48.012;10.968;2024-01-27T01:12:21;4.30;99.90
5834;DHT22;2943;48.012;10.968;2024-01-27T01:14:48;4.20;99.90
5834;DHT22;2943;48.012;10.968;2024-01-27T01:17:16;4.20;99.90
5834;DHT22;2943;48.012;10.968;2024-01-27T01:19:43;4.20;99.90
5834;DHT22;2943;48.012;10.968;2024-01-27T01:22:10;4.20;99.90
5834;DHT22;2943;48.012;10.968;2024-01-27T01:24:37;4.10;99.90
5834;DHT22;2943;48.012;10.968;2024-01-27T01:27:04;4.10;99.90
5834;DHT22;2943;48.012;10.968;2024-01-27T01:29:31;4.00;99.90
5834;DHT22;2943;48.012;10.968;2024-01-27T01:31:58;4.00;99.90
5834;DHT22;2943;48.012;10.968;2024-01-27T01:34:29;4.00;99.90
5834;DHT22;2943;48.012;10.968;2024-01-27T01:36:57;3.90;99.90
5834;DHT22;2943;48.012;10.968;2024-01-27T01:39:23;3.90;99.90
5834;DHT22;2943;48.012;10.968;2024-01-27T01:41:50;3.90;99.90
5834;DHT22;2943;48.012;10.968;2024-01-27T01:44:17;3.90;99.90
5834;DHT22;2943;48.012;10.968;2024-01-27T01:46:43;3.90;99.90
5834;DHT22;2943;48.012;10.968;2024-01-27T01:49:11;3.90;99.90
5834;DHT22;2943;48.012;10.968;2024-01-27T01:51:39;3.80;99.90
5834;DHT22;2943;48.012;10.968;2024-01-27T01:54:06;3.80;99.90
5834;DHT22;2943;48.012;10.968;2024-01-27T01:56:33;3.80;99.90
5834;DHT22;2943;48.012;10.968;2024-01-27T01:59:00;3.80;99.90
5834;DHT22;2943;48.012;10.968;2024-01-27T02:01:27;3.70;99.90
5834;DHT22;2943;48.012;10.968;2024-01-27T02:03:54;3.70;99.90
5834;DHT22;2943;48.012;10.968;2024-01-27T02:06:21;3.60;99.90
5834;DHT22;2943;48.012;10.968;2024-01-27T02:08:50;3.60;99.90
5834;DHT22;2943;48.012;10.968;2024-01-27T02:11:17;3.50;99.90
5834;DHT22;2943;48.012;10.968;2024-01-27T02:13:47;3.50;99.90
5834;DHT22;2943;48.012;10.968;2024-01-27T02:16:14;3.50;99.90
5834;DHT22;2943;48.012;10.968;2024-01-27T02:18:43;3.40;99.90
5834;DHT22;2943;48.012;10.968;2024-01-27T02:21:10;3.40;99.90
5834;DHT22;2943;48.012;10.968;2024-01-27T02:23:37;3.40;99.90
5834;DHT22;2943;48.012;10.968;2024-01-27T02:26:05;3.40;99.90
5834;DHT22;2943;48.012;10.968;2024-01-27T02:28:32;3.40;99.90
5834;DHT22;2943;48.012;10.968;2024-01-27T02:31:00;3.40;99.90
5834;DHT22;2943;48.012;10.968;2024-01-27T02:33:28;3.30;99.90
5834;DHT22;2943;48.012;10.968;2024-01-27T02:35:55;3.30;99.90
5834;DHT22;2943;48.012;10.968;2024-01-27T02:38:21;3.20;99.90
5834;DHT22;2943;48.012;10.968;2024-01-27T02:40:49;3.10;99.90
5834;DHT22;2943;48.012;10.968;2024-01-27T02:43:17;3.00;99.90
5834;DHT22;2943;48.012;10.968;2024-01-27T02:45:44;2.90;99.90
5834;DHT22;2943;48.012;10.968;2024-01-27T02:48:11;2.80;99.90
5834;DHT22;2943;48.012;10.968;2024-01-27T02:50:37;2.70;99.90
5834;DHT22;2943;48.012;10.968;2024-01-27T02:53:04;2.70;99.90
5834;DHT22;2943;48.012;10.968;2024-01-27T02:55:31;2.60;99.90
5834;DHT22;2943;48.012;10.968;2024-01-27T02:57:58;2.50;99.90
5834;DHT22;2943;48.012;10.968;2024-01-27T03:00:25;2.50;99.90
5834;DHT22;2943;48.012;10.968;2024-01-27T03:02:52;2.50;99.90
5834;DHT22;2943;48.012;10.968;2024-01-27T03:05:19;2.50;99.90
5834;DHT22;2943;48.012;10.968;2024-01-27T03:07:46;2.50;99.90
5834;DHT22;2943;48.012;10.968;2024-01-27T03:10:13;2.50;99.90
5834;DHT22;2943;48.012;10.968;2024-01-27T03:12:40;2.50;99.90
5834;DHT22;2943;48.012;10.968;2024-01-27T03:15:07;2.50;99.90
5834;DHT22;2943;48.012;10.968;2024-01-27T03:17:36;2.50;99.90
5834;DHT22;2943;48.012;10.968;2024-01-27T03:20:02;2.50;99.90
5834;DHT22;2943;48.012;10.968;2024-01-27T03:22:29;2.50;99.90
5834;DHT22;2943;48.012;10.968;2024-01-27T03:24:55;2.50;99.90
5834;DHT22;2943;48.012;10.968;2024-01-27T03:27:22;2.50;99.90
5834;DHT22;2943;48.012;10.968;2024-01-27T03:29:49;2.40;99.90
5834;DHT22;2943;48.012;10.968;2024-01-27T03:32:16;2.40;99.90
5834;DHT22;2943;48.012;10.968;2024-01-27T03:34:45;2.40;99.90
5834;DHT22;2943;48.012;10.968;2024-01-27T03:37:12;2.40;99.90
5834;DHT22;2943;48.012;10.968;2024-01-27T03:39:41;2.30;99.90
5834;DHT22;2943;48.012;10.968;2024-01-27T03:42:08;2.20;99.90
5834;DHT22;2943;48.012;10.968;2024-01-27T03:44:35;2.10;99.90
5834;DHT22;2943;48.012;10.968;2024-01-27T03:47:02;2.10;99.90
5834;DHT22;2943;48.012;10.968;2024-01-27T03:49:29;2.10;99.90
5834;DHT22;2943;48.012;10.968;2024-01-27T03:51:57;2.10;99.90
5834;DHT22;2943;48.012;10.968;2024-01-27T03:54:24;2.10;99.90
5834;DHT22;2943;48.012;10.968;2024-01-27T03:56:52;2.20;99.90
5834;DHT22;2943;48.012;10.968;2024-01-27T03:59:19;2.20;99.90
5834;DHT22;2943;48.012;10.968;2024-01-27T04:01:46;2.20;99.90
5834;DHT22;2943;48.012;10.968;2024-01-27T04:04:13;2.30;99.90
5834;DHT22;2943;48.012;10.968;2024-01-27T04:06:40;2.20;99.90
5834;DHT22;2943;48.012;10.968;2024-01-27T04:09:09;2.30;99.90
5834;DHT22;2943;48.012;10.968;2024-01-27T04:11:36;2.30;99.90
5834;DHT22;2943;48.012;10.968;2024-01-27T04:14:04;2.30;99.90
5834;DHT22;2943;48.012;10.968;2024-01-27T04:16:31;2.30;99.90
5834;DHT22;2943;48.012;10.968;2024-01-27T04:18:58;2.30;99.90
5834;DHT22;2943;48.012;10.968;2024-01-27T04:21:25;2.20;99.90
5834;DHT22;2943;48.012;10.968;2024-01-27T04:23:52;2.30;99.90
5834;DHT22;2943;48.012;10.968;2024-01-27T04:26:20;2.30;99.90
5834;DHT22;2943;48.012;10.968;2024-01-27T04:28:47;2.30;99.90
5834;DHT22;2943;48.012;10.968;2024-01-27T04:31:14;2.30;99.90
5834;DHT22;2943;48.012;10.968;2024-01-27T04:33:41;2.30;99.90
5834;DHT22;2943;48.012;10.968;2024-01-27T04:36:08;2.30;99.90
5834;DHT22;2943;48.012;10.968;2024-01-27T04:38:35;2.30;99.90
5834;DHT22;2943;48.012;10.968;2024-01-27T04:41:02;2.30;99.90
5834;DHT22;2943;48.012;10.968;2024-01-27T04:43:31;2.30;99.90
5834;DHT22;2943;48.012;10.968;2024-01-27T04:45:57;2.30;99.90
5834;DHT22;2943;48.012;10.968;2024-01-27T04:48:24;2.30;99.90
5834;DHT22;2943;48.012;10.968;2024-01-27T04:50:51;2.30;99.90
5834;DHT22;2943;48.012;10.968;2024-01-27T04:53:19;2.30;99.90
5834;DHT22;2943;48.012;10.968;2024-01-27T04:55:46;2.30;99.90
5834;DHT22;2943;48.012;10.968;2024-01-27T04:58:13;2.30;99.90
5834;DHT22;2943;48.012;10.968;2024-01-27T05:00:41;2.30;99.90
5834;DHT22;2943;48.012;10.968;2024-01-27T05:03:08;2.30;99.90
5834;DHT22;2943;48.012;10.968;2024-01-27T05:05:41;2.30;99.90
5834;DHT22;2943;48.012;10.968;2024-01-27T05:08:07;2.30;99.90
5834;DHT22;2943;48.012;10.968;2024-01-27T05:10:35;2.30;99.90
5834;DHT22;2943;48.012;10.968;2024-01-27T05:13:02;2.30;99.90
5834;DHT22;2943;48.012;10.968;2024-01-27T05:15:29;2.30;99.90
5834;DHT22;2943;48.012;10.968;2024-01-27T05:17:57;2.30;99.90
5834;DHT22;2943;48.012;10.968;2024-01-27T05:20:24;2.20;99.90
5834;DHT22;2943;48.012;10.968;2024-01-27T05:22:51;2.20;99.90
5834;DHT22;2943;48.012;10.968;2024-01-27T05:25:18;2.20;99.90
5834;DHT22;2943;48.012;10.968;2024-01-27T05:27:45;2.20;99.90
5834;DHT22;2943;48.012;10.968;2024-01-27T05:30:12;2.10;99.90
5834;DHT22;2943;48.012;10.968;2024-01-27T05:32:40;2.10;99.90
5834;DHT22;2943;48.012;10.968;2024-01-27T05:35:08;2.10;99.90
5834;DHT22;2943;48.012;10.968;2024-01-27T05:37:36;2.10;99.90
5834;DHT22;2943;48.012;10.968;2024-01-27T05:40:05;2.10;99.90
5834;DHT22;2943;48.012;10.968;2024-01-27T05:42:32;2.00;99.90
5834;DHT22;2943;48.012;10.968;2024-01-27T05:44:59;2.00;99.90
5834;DHT22;2943;48.012;10.968;2024-01-27T05:47:27;1.90;99.90
5834;DHT22;2943;48.012;10.968;2024-01-27T05:49:54;1.90;99.90
5834;DHT22;2943;48.012;10.968;2024-01-27T05:52:22;1.90;99.90
5834;DHT22;2943;48.012;10.968;2024-01-27T05:54:51;1.90;99.90
5834;DHT22;2943;48.012;10.968;2024-01-27T05:57:17;1.80;99.90
5834;DHT22;2943;48.012;10.968;2024-01-27T05:59:45;1.80;99.90
5834;DHT22;2943;48.012;10.968;2024-01-27T06:02:12;1.80;99.90
5834;DHT22;2943;48.012;10.968;2024-01-27T06:04:39;1.80;99.90
5834;DHT22;2943;48.012;10.968;2024-01-27T06:07:06;1.80;99.90
5834;DHT22;2943;48.012;10.968;2024-01-27T06:09:37;1.80;99.90
5834;DHT22;2943;48.012;10.968;2024-01-27T06:12:05;1.80;99.90
5834;DHT22;2943;48.012;10.968;2024-01-27T06:14:32;1.80;99.90
5834;DHT22;2943;48.012;10.968;2024-01-27T06:16:58;1.80;99.90
5834;DHT22;2943;48.012;10.968;2024-01-27T06:19:25;1.70;99.90
5834;DHT22;2943;48.012;10.968;2024-01-27T06:21:52;1.70;99.90
5834;DHT22;2943;48.012;10.968;2024-01-27T06:24:19;1.70;99.90
5834;DHT22;2943;48.012;10.968;2024-01-27T06:26:47;1.70;99.90
5834;DHT22;2943;48.012;10.968;2024-01-27T06:29:14;1.70;99.90
5834;DHT22;2943;48.012;10.968;2024-01-27T06:31:42;1.70;99.90
5834;DHT22;2943;48.012;10.968;2024-01-27T06:34:09;1.70;99.90
5834;DHT22;2943;48.012;10.968;2024-01-27T06:36:36;1.70;99.90
5834;DHT22;2943;48.012;10.968;2024-01-27T06:39:03;1.70;99.90
5834;DHT22;2943;48.012;10.968;2024-01-27T06:41:29;1.60;99.90
5834;DHT22;2943;48.012;10.968;2024-01-27T06:43:58;1.60;99.90
5834;DHT22;2943;48.012;10.968;2024-01-27T06:46:24;1.60;99.90
5834;DHT22;2943;48.012;10.968;2024-01-27T06:48:51;1.60;99.90
5834;DHT22;2943;48.012;10.968;2024-01-27T06:51:18;1.60;99.90
5834;DHT22;2943;48.012;10.968;2024-01-27T06:53:45;1.50;99.90
5834;DHT22;2943;48.012;10.968;2024-01-27T06:56:13;1.40;99.90
5834;DHT22;2943;48.012;10.968;2024-01-27T06:58:40;1.30;99.90
5834;DHT22;2943;48.012;10.968;2024-01-27T07:01:09;1.30;99.90
5834;DHT22;2943;48.012;10.968;2024-01-27T07:03:36;1.20;99.90
5834;DHT22;2943;48.012;10.968;2024-01-27T07:06:05;1.20;99.90
5834;DHT22;2943;48.012;10.968;2024-01-27T07:08:32;1.20;99.90
5834;DHT22;2943;48.012;10.968;2024-01-27T07:10:59;1.10;99.90
5834;DHT22;2943;48.012;10.968;2024-01-27T07:13:26;1.00;99.90
5834;DHT22;2943;48.012;10.968;2024-01-27T07:15:55;1.20;99.90
5834;DHT22;2943;48.012;10.968;2024-01-27T07:18:24;1.70;99.90
5834;DHT22;2943;48.012;10.968;2024-01-27T07:20:51;1.80;99.90
5834;DHT22;2943;48.012;10.968;2024-01-27T07:23:18;1.70;99.90
5834;DHT22;2943;48.012;10.968;2024-01-27T07:25:45;1.50;99.90
5834;DHT22;2943;48.012;10.968;2024-01-27T07:28:12;1.40;99.90
5834;DHT22;2943;48.012;10.968;2024-01-27T07:30:41;1.20;99.90
5834;DHT22;2943;48.012;10.968;2024-01-27T07:33:08;1.10;99.90
5834;DHT22;2943;48.012;10.968;2024-01-27T07:35:36;1.00;99.90
5834;DHT22;2943;48.012;10.968;2024-01-27T07:38:04;0.90;99.90
5834;DHT22;2943;48.012;10.968;2024-01-27T07:40:31;0.80;99.90
5834;DHT22;2943;48.012;10.968;2024-01-27T07:42:58;0.80;99.90
5834;DHT22;2943;48.012;10.968;2024-01-27T07:45:25;0.70;99.90
5834;DHT22;2943;48.012;10.968;2024-01-27T07:47:52;0.70;99.90
5834;DHT22;2943;48.012;10.968;2024-01-27T07:50:18;0.70;99.90
5834;DHT22;2943;48.012;10.968;2024-01-27T07:52:47;0.60;99.90
5834;DHT22;2943;48.012;10.968;2024-01-27T07:55:14;0.70;99.90
5834;DHT22;2943;48.012;10.968;2024-01-27T07:57:42;0.70;99.90
5834;DHT22;2943;48.012;10.968;2024-01-27T08:00:10;0.70;99.90
5834;DHT22;2943;48.012;10.968;2024-01-27T08:02:37;0.80;99.90
5834;DHT22;2943;48.012;10.968;2024-01-27T08:05:04;0.80;99.90
5834;DHT22;2943;48.012;10.968;2024-01-27T08:07:32;0.80;99.90
5834;DHT22;2943;48.012;10.968;2024-01-27T08:10:00;0.80;99.90
5834;DHT22;2943;48.012;10.968;2024-01-27T08:12:29;0.90;99.90
5834;DHT22;2943;48.012;10.968;2024-01-27T08:14:56;0.90;99.90
5834;DHT22;2943;48.012;10.968;2024-01-27T08:17:23;0.90;99.90
5834;DHT22;2943;48.012;10.968;2024-01-27T08:19:50;0.90;99.90
5834;DHT22;2943;48.012;10.968;2024-01-27T08:22:18;1.00;99.90
5834;DHT22;2943;48.012;10.968;2024-01-27T08:24:44;1.00;99.90
5834;DHT22;2943;48.012;10.968;2024-01-27T08:27:13;1.00;99.90
5834;DHT22;2943;48.012;10.968;2024-01-27T08:29:40;1.10;99.90
5834;DHT22;2943;48.012;10.968;2024-01-27T08:32:07;1.10;99.90
5834;DHT22;2943;48.012;10.968;2024-01-27T08:34:35;1.10;99.90
5834;DHT22;2943;48.012;10.968;2024-01-27T08:37:02;1.20;99.90
5834;DHT22;2943;48.012;10.968;2024-01-27T08:39:29;1.20;99.90
5834;DHT22;2943;48.012;10.968;2024-01-27T08:41:56;1.30;99.90
5834;DHT22;2943;48.012;10.968;2024-01-27T08:44:24;1.30;99.90
5834;DHT22;2943;48.012;10.968;2024-01-27T08:46:52;1.30;99.90
5834;DHT22;2943;48.012;10.968;2024-01-27T08:49:19;1.40;99.90
5834;DHT22;2943;48.012;10.968;2024-01-27T08:51:45;1.40;99.90
5834;DHT22;2943;48.012;10.968;2024-01-27T08:54:12;1.40;99.90
5834;DHT22;2943;48.012;10.968;2024-01-27T08:56:39;1.40;99.90
5834;DHT22;2943;48.012;10.968;2024-01-27T08:59:07;1.50;99.90
5834;DHT22;2943;48.012;10.968;2024-01-27T09:01:35;1.50;99.90
5834;DHT22;2943;48.012;10.968;2024-01-27T09:04:02;1.60;99.90
5834;DHT22;2943;48.012;10.968;2024-01-27T09:06:29;1.60;99.90
5834;DHT22;2943;48.012;10.968;2024-01-27T09:08:56;1.70;99.90
5834;DHT22;2943;48.012;10.968;2024-01-27T09:11:23;1.70;99.90
5834;DHT22;2943;48.012;10.968;2024-01-27T09:13:52;1.80;99.90
5834;DHT22;2943;48.012;10.968;2024-01-27T09:16:20;1.80;99.90
5834;DHT22;2943;48.012;10.968;2024-01-27T09:18:48;1.80;99.90
5834;DHT22;2943;48.012;10.968;2024-01-27T09:21:15;1.80;99.90
5834;DHT22;2943;48.012;10.968;2024-01-27T09:23:46;1.90;99.90
5834;DHT22;2943;48.012;10.968;2024-01-27T09:26:13;2.00;99.90
5834;DHT22;2943;48.012;10.968;2024-01-27T09:28:40;1.90;99.90
5834;DHT22;2943;48.012;10.968;2024-01-27T09:31:09;2.00;99.90
5834;DHT22;2943;48.012;10.968;2024-01-27T09:33:37;2.00;99.90
5834;DHT22;2943;48.012;10.968;2024-01-27T09:36:06;2.10;99.90
5834;DHT22;2943;48.012;10.968;2024-01-27T09:38:33;2.20;99.90
5834;DHT22;2943;48.012;10.968;2024-01-27T09:41:00;2.20;99.90
5834;DHT22;2943;48.012;10.968;2024-01-27T09:43:28;2.20;99.90
5834;DHT22;2943;48.012;10.968;2024-01-27T09:45:55;2.10;99.90
5834;DHT22;2943;48.012;10.968;2024-01-27T09:48:22;2.30;99.90
5834;DHT22;2943;48.012;10.968;2024-01-27T09:50:52;2.40;99.90
5834;DHT22;2943;48.012;10.968;2024-01-27T09:53:21;2.70;99.90
5834;DHT22;2943;48.012;10.968;2024-01-27T09:55:49;2.90;99.90
5834;DHT22;2943;48.012;10.968;2024-01-27T09:58:17;2.90;99.90
5834;DHT22;2943;48.012;10.968;2024-01-27T10:00:45;2.90;99.90
5834;DHT22;2943;48.012;10.968;2024-01-27T10:03:12;2.80;99.90
5834;DHT22;2943;48.012;10.968;2024-01-27T10:05:42;2.80;99.90
5834;DHT22;2943;48.012;10.968;2024-01-27T10:08:09;2.80;99.90
5834;DHT22;2943;48.012;10.968;2024-01-27T10:10:38;2.80;99.90
5834;DHT22;2943;48.012;10.968;2024-01-27T10:13:05;2.70;99.90
5834;DHT22;2943;48.012;10.968;2024-01-27T10:15:33;2.70;99.90
5834;DHT22;2943;48.012;10.968;2024-01-27T10:18:06;2.80;99.90
5834;DHT22;2943;48.012;10.968;2024-01-27T10:20:34;2.80;99.90
5834;DHT22;2943;48.012;10.968;2024-01-27T10:23:10;2.90;99.90
5834;DHT22;2943;48.012;10.968;2024-01-27T10:25:40;2.90;99.90
5834;DHT22;2943;48.012;10.968;2024-01-27T10:28:07;2.90;99.90
5834;DHT22;2943;48.012;10.968;2024-01-27T10:30:35;2.90;99.90
5834;DHT22;2943;48.012;10.968;2024-01-27T10:33:03;3.00;99.90
5834;DHT22;2943;48.012;10.968;2024-01-27T10:35:30;3.20;99.90
5834;DHT22;2943;48.012;10.968;2024-01-27T10:37:57;3.50;99.90
5834;DHT22;2943;48.012;10.968;2024-01-27T10:40:24;3.70;99.90
5834;DHT22;2943;48.012;10.968;2024-01-27T10:43:00;3.70;99.90
5834;DHT22;2943;48.012;10.968;2024-01-27T10:45:32;3.60;99.90
5834;DHT22;2943;48.012;10.968;2024-01-27T10:48:02;3.60;99.90
5834;DHT22;2943;48.012;10.968;2024-01-27T10:50:30;3.50;99.90
5834;DHT22;2943;48.012;10.968;2024-01-27T10:53:01;3.50;99.90
5834;DHT22;2943;48.012;10.968;2024-01-27T10:55:29;3.50;99.90
5834;DHT22;2943;48.012;10.968;2024-01-27T10:57:59;3.50;99.90
5834;DHT22;2943;48.012;10.968;2024-01-27T11:00:28;3.50;99.90
5834;DHT22;2943;48.012;10.968;2024-01-27T11:02:58;3.50;99.90
5834;DHT22;2943;48.012;10.968;2024-01-27T11:05:27;3.50;99.90
5834;DHT22;2943;48.012;10.968;2024-01-27T11:07:56;3.50;99.90
5834;DHT22;2943;48.012;10.968;2024-01-27T11:10:24;3.50;99.90
5834;DHT22;2943;48.012;10.968;2024-01-27T11:12:52;3.50;99.90
5834;DHT22;2943;48.012;10.968;2024-01-27T11:15:22;3.50;99.90
5834;DHT22;2943;48.012;10.968;2024-01-27T11:17:48;3.50;99.90
5834;DHT22;2943;48.012;10.968;2024-01-27T11:20:16;3.50;99.90
5834;DHT22;2943;48.012;10.968;2024-01-27T11:22:43;3.50;99.90
5834;DHT22;2943;48.012;10.968;2024-01-27T11:25:16;3.50;99.90
5834;DHT22;2943;48.012;10.968;2024-01-27T11:27:45;3.60;99.90
5834;DHT22;2943;48.012;10.968;2024-01-27T11:30:30;3.50;99.90
5834;DHT22;2943;48.012;10.968;2024-01-27T11:33:01;3.50;99.90
5834;DHT22;2943;48.012;10.968;2024-01-27T11:35:30;3.50;99.90
5834;DHT22;2943;48.012;10.968;2024-01-27T11:37:57;3.60;99.90
5834;DHT22;2943;48.012;10.968;2024-01-27T11:40:24;3.60;99.90
5834;DHT22;2943;48.012;10.968;2024-01-27T11:42:54;3.60;99.90
5834;DHT22;2943;48.012;10.968;2024-01-27T11:45:22;3.70;99.90
5834;DHT22;2943;48.012;10.968;2024-01-27T11:47:51;3.70;99.90
5834;DHT22;2943;48.012;10.968;2024-01-27T11:50:18;4.00;99.90
5834;DHT22;2943;48.012;10.968;2024-01-27T11:52:51;4.20;99.90
5834;DHT22;2943;48.012;10.968;2024-01-27T11:55:21;4.40;99.90
5834;DHT22;2943;48.012;10.968;2024-01-27T11:57:48;4.70;99.90
5834;DHT22;2943;48.012;10.968;2024-01-27T12:00:17;4.90;99.90
5834;DHT22;2943;48.012;10.968;2024-01-27T12:02:44;4.90;99.90
5834;DHT22;2943;48.012;10.968;2024-01-27T12:15:19;4.90;99.90
5834;DHT22;2943;48.012;10.968;2024-01-27T12:17:50;4.80;99.90
5834;DHT22;2943;48.012;10.968;2024-01-27T12:20:18;4.70;99.90
5834;DHT22;2943;48.012;10.968;2024-01-27T12:22:48;4.70;99.90
5834;DHT22;2943;48.012;10.968;2024-01-27T12:25:16;4.60;99.90
5834;DHT22;2943;48.012;10.968;2024-01-27T12:27:44;4.60;99.90
5834;DHT22;2943;48.012;10.968;2024-01-27T12:30:12;4.60;99.90
5834;DHT22;2943;48.012;10.968;2024-01-27T12:32:41;4.50;99.90
5834;DHT22;2943;48.012;10.968;2024-01-27T12:35:11;4.50;99.90
5834;DHT22;2943;48.012;10.968;2024-01-27T12:37:39;4.50;99.90
5834;DHT22;2943;48.012;10.968;2024-01-27T12:40:17;4.40;99.90
5834;DHT22;2943;48.012;10.968;2024-01-27T12:42:45;4.40;99.90
5834;DHT22;2943;48.012;10.968;2024-01-27T12:45:15;4.40;99.90
5834;DHT22;2943;48.012;10.968;2024-01-27T12:47:43;4.40;99.90
5834;DHT22;2943;48.012;10.968;2024-01-27T12:50:11;4.40;99.90
5834;DHT22;2943;48.012;10.968;2024-01-27T12:52:38;4.40;99.90
5834;DHT22;2943;48.012;10.968;2024-01-27T12:55:08;4.40;99.90
5834;DHT22;2943;48.012;10.968;2024-01-27T12:57:35;4.40;99.90
5834;DHT22;2943;48.012;10.968;2024-01-27T13:00:03;4.50;99.90
5834;DHT22;2943;48.012;10.968;2024-01-27T13:02:37;4.50;99.90
5834;DHT22;2943;48.012;10.968;2024-01-27T13:05:06;4.50;99.90
5834;DHT22;2943;48.012;10.968;2024-01-27T13:07:35;4.50;99.90
5834;DHT22;2943;48.012;10.968;2024-01-27T13:10:06;4.50;99.90
5834;DHT22;2943;48.012;10.968;2024-01-27T13:12:33;4.50;99.90
5834;DHT22;2943;48.012;10.968;2024-01-27T13:15:01;4.50;99.90
5834;DHT22;2943;48.012;10.968;2024-01-27T13:17:28;4.50;99.90
5834;DHT22;2943;48.012;10.968;2024-01-27T13:19:55;4.50;99.90
5834;DHT22;2943;48.012;10.968;2024-01-27T13:22:24;4.50;99.90
5834;DHT22;2943;48.012;10.968;2024-01-27T13:24:51;4.50;99.90
5834;DHT22;2943;48.012;10.968;2024-01-27T13:27:18;4.50;99.90
5834;DHT22;2943;48.012;10.968;2024-01-27T13:29:45;4.50;99.90
5834;DHT22;2943;48.012;10.968;2024-01-27T13:32:12;4.60;99.90
5834;DHT22;2943;48.012;10.968;2024-01-27T13:34:40;4.60;99.90
5834;DHT22;2943;48.012;10.968;2024-01-27T13:37:08;4.60;99.90
5834;DHT22;2943;48.012;10.968;2024-01-27T13:39:37;4.60;99.90
5834;DHT22;2943;48.012;10.968;2024-01-27T13:42:07;4.60;99.90
5834;DHT22;2943;48.012;10.968;2024-01-27T13:44:35;4.60;99.90
5834;DHT22;2943;48.012;10.968;2024-01-27T13:47:02;4.60;99.90
5834;DHT22;2943;48.012;10.968;2024-01-27T13:49:30;4.60;99.90
5834;DHT22;2943;48.012;10.968;2024-01-27T13:51:58;4.60;99.90
5834;DHT22;2943;48.012;10.968;2024-01-27T13:54:25;4.50;99.90
5834;DHT22;2943;48.012;10.968;2024-01-27T13:56:54;4.60;99.90
5834;DHT22;2943;48.012;10.968;2024-01-27T13:59:21;4.60;99.90
5834;DHT22;2943;48.012;10.968;2024-01-27T14:01:49;4.60;99.90
5834;DHT22;2943;48.012;10.968;2024-01-27T14:04:16;4.60;99.90
5834;DHT22;2943;48.012;10.968;2024-01-27T14:06:43;4.60;99.90
5834;DHT22;2943;48.012;10.968;2024-01-27T14:09:10;4.60;99.90
5834;DHT22;2943;48.012;10.968;2024-01-27T14:11:38;4.60;99.90
5834;DHT22;2943;48.012;10.968;2024-01-27T14:14:07;4.60;99.90
5834;DHT22;2943;48.012;10.968;2024-01-27T14:16:33;4.60;99.90
5834;DHT22;2943;48.012;10.968;2024-01-27T14:19:00;4.60;99.90
5834;DHT22;2943;48.012;10.968;2024-01-27T14:21:27;4.60;99.90
5834;DHT22;2943;48.012;10.968;2024-01-27T14:23:54;4.60;99.90
5834;DHT22;2943;48.012;10.968;2024-01-27T14:26:26;4.60;99.90
5834;DHT22;2943;48.012;10.968;2024-01-27T14:28:57;4.60;99.90
5834;DHT22;2943;48.012;10.968;2024-01-27T14:31:28;4.60;99.90
5834;DHT22;2943;48.012;10.968;2024-01-27T14:33:56;4.60;99.90
5834;DHT22;2943;48.012;10.968;2024-01-27T14:36:23;4.60;99.90
5834;DHT22;2943;48.012;10.968;2024-01-27T14:38:51;4.70;99.90
5834;DHT22;2943;48.012;10.968;2024-01-27T14:41:18;4.70;99.90
5834;DHT22;2943;48.012;10.968;2024-01-27T14:43:45;4.80;99.90
5834;DHT22;2943;48.012;10.968;2024-01-27T14:46:15;4.70;99.90
5834;DHT22;2943;48.012;10.968;2024-01-27T14:48:43;4.70;99.90
5834;DHT22;2943;48.012;10.968;2024-01-27T14:51:11;4.60;99.90
5834;DHT22;2943;48.012;10.968;2024-01-27T14:53:38;4.60;99.90
5834;DHT22;2943;48.012;10.968;2024-01-27T14:56:05;4.50;99.90
5834;DHT22;2943;48.012;10.968;2024-01-27T14:58:32;4.50;99.90
5834;DHT22;2943;48.012;10.968;2024-01-27T15:00:59;4.50;99.90
5834;DHT22;2943;48.012;10.968;2024-01-27T15:03:26;4.40;99.90
5834;DHT22;2943;48.012;10.968;2024-01-27T15:05:54;4.40;99.90
5834;DHT22;2943;48.012;10.968;2024-01-27T15:08:22;4.40;99.90
5834;DHT22;2943;48.012;10.968;2024-01-27T15:10:49;4.30;99.90
5834;DHT22;2943;48.012;10.968;2024-01-27T15:13:15;4.30;99.90
5834;DHT22;2943;48.012;10.968;2024-01-27T15:15:46;4.20;99.90
5834;DHT22;2943;48.012;10.968;2024-01-27T15:18:13;4.20;99.90
5834;DHT22;2943;48.012;10.968;2024-01-27T15:20:41;4.20;99.90
5834;DHT22;2943;48.012;10.968;2024-01-27T15:23:10;4.20;99.90
5834;DHT22;2943;48.012;10.968;2024-01-27T15:25:37;4.20;99.90
5834;DHT22;2943;48.012;10.968;2024-01-27T15:28:05;4.10;99.90
5834;DHT22;2943;48.012;10.968;2024-01-27T15:30:31;4.10;99.90
5834;DHT22;2943;48.012;10.968;2024-01-27T15:33:01;4.10;99.90
5834;DHT22;2943;48.012;10.968;2024-01-27T15:35:28;4.10;99.90
5834;DHT22;2943;48.012;10.968;2024-01-27T15:37:58;4.00;99.90
5834;DHT22;2943;48.012;10.968;2024-01-27T15:40:26;4.00;99.90
5834;DHT22;2943;48.012;10.968;2024-01-27T15:42:54;4.00;99.90
5834;DHT22;2943;48.012;10.968;2024-01-27T15:45:23;4.00;99.90
5834;DHT22;2943;48.012;10.968;2024-01-27T15:47:50;4.00;99.90
5834;DHT22;2943;48.012;10.968;2024-01-27T15:50:18;3.90;99.90
5834;DHT22;2943;48.012;10.968;2024-01-27T15:52:46;3.90;99.90
5834;DHT22;2943;48.012;10.968;2024-01-27T15:55:13;3.90;99.90
5834;DHT22;2943;48.012;10.968;2024-01-27T15:57:44;3.80;99.90
5834;DHT22;2943;48.012;10.968;2024-01-27T16:00:12;3.80;99.90
5834;DHT22;2943;48.012;10.968;2024-01-27T16:02:39;3.80;99.90
5834;DHT22;2943;48.012;10.968;2024-01-27T16:05:06;3.70;99.90
5834;DHT22;2943;48.012;10.968;2024-01-27T16:07:33;3.70;99.90
5834;DHT22;2943;48.012;10.968;2024-01-27T16:10:04;3.60;99.90
5834;DHT22;2943;48.012;10.968;2024-01-27T16:12:32;3.60;99.90
5834;DHT22;2943;48.012;10.968;2024-01-27T16:15:00;3.60;99.90